sensor_id;sensor_type;location;lat;lon;timestamp;pressure;altitude;pressure_sealevel;temperature;humidity
64602;BME280;51013;42.630;23.192;2023-03-04T00:01:37;92312.59;;;4.89;100.00
64602;BME280;51013;42.630;23.192;2023-03-04T00:04:04;92316.59;;;4.95;100.00
64602;BME280;51013;42.630;23.192;2023-03-04T00:06:31;92316.31;;;5.06;100.00
64602;BME280;51013;42.630;23.192;2023-03-04T00:08:58;92309.56;;;5.05;100.00
64602;BME280;51013;42.630;23.192;2023-03-04T00:11:25;92309.41;;;5.01;100.00
64602;BME280;51013;42.630;23.192;2023-03-04T00:13:53;92310.19;;;5.10;100.00
64602;BME280;51013;42.630;23.192;2023-03-04T00:16:20;92307.75;;;5.14;99.91
64602;BME280;51013;42.630;23.192;2023-03-04T00:18:47;92306.56;;;5.20;99.44
64602;BME280;51013;42.630;23.192;2023-03-04T00:21:16;92301.00;;;5.13;100.00
64602;BME280;51013;42.630;23.192;2023-03-04T00:23:42;92294.75;;;5.14;100.00
64602;BME280;51013;42.630;23.192;2023-03-04T00:26:10;92301.34;;;5.20;100.00
64602;BME280;51013;42.630;23.192;2023-03-04T00:28:37;92297.47;;;5.09;100.00
64602;BME280;51013;42.630;23.192;2023-03-04T00:31:06;92292.44;;;5.12;100.00
64602;BME280;51013;42.630;23.192;2023-03-04T00:33:33;92286.28;;;4.99;100.00
64602;BME280;51013;42.630;23.192;2023-03-04T00:35:59;92293.19;;;5.04;100.00
64602;BME280;51013;42.630;23.192;2023-03-04T00:38:26;92290.75;;;5.08;100.00
64602;BME280;51013;42.630;23.192;2023-03-04T00:40:53;92292.41;;;5.04;100.00
64602;BME280;51013;42.630;23.192;2023-03-04T00:43:23;92292.25;;;4.91;100.00
64602;BME280;51013;42.630;23.192;2023-03-04T00:45:51;92288.25;;;4.85;100.00
64602;BME280;51013;42.630;23.192;2023-03-04T00:48:21;92289.56;;;4.74;100.00
64602;BME280;51013;42.630;23.192;2023-03-04T00:50:48;92292.13;;;4.65;100.00
64602;BME280;51013;42.630;23.192;2023-03-04T00:53:18;92289.19;;;4.58;100.00
64602;BME280;51013;42.630;23.192;2023-03-04T00:55:45;92291.69;;;4.63;100.00
64602;BME280;51013;42.630;23.192;2023-03-04T00:58:11;92282.00;;;4.55;100.00
64602;BME280;51013;42.630;23.192;2023-03-04T01:00:38;92289.81;;;4.55;100.00
64602;BME280;51013;42.630;23.192;2023-03-04T01:03:05;92277.91;;;4.63;100.00
64602;BME280;51013;42.630;23.192;2023-03-04T01:05:33;92276.09;;;4.72;100.00
64602;BME280;51013;42.630;23.192;2023-03-04T01:08:00;92274.84;;;4.60;100.00
64602;BME280;51013;42.630;23.192;2023-03-04T01:10:27;92276.84;;;4.72;100.00
64602;BME280;51013;42.630;23.192;2023-03-04T01:12:53;92274.72;;;4.74;100.00
64602;BME280;51013;42.630;23.192;2023-03-04T01:15:20;92263.53;;;4.65;100.00
64602;BME280;51013;42.630;23.192;2023-03-04T01:17:49;92281.00;;;4.73;100.00
64602;BME280;51013;42.630;23.192;2023-03-04T01:20:16;92277.78;;;4.76;100.00
64602;BME280;51013;42.630;23.192;2023-03-04T01:22:44;92275.22;;;4.85;100.00
64602;BME280;51013;42.630;23.192;2023-03-04T01:25:11;92273.56;;;4.89;100.00
64602;BME280;51013;42.630;23.192;2023-03-04T01:27:37;92264.06;;;4.93;100.00
64602;BME280;51013;42.630;23.192;2023-03-04T01:30:05;92268.97;;;4.95;100.00
64602;BME280;51013;42.630;23.192;2023-03-04T01:32:32;92261.78;;;5.00;100.00
64602;BME280;51013;42.630;23.192;2023-03-04T01:34:59;92257.81;;;5.03;100.00
64602;BME280;51013;42.630;23.192;2023-03-04T01:37:25;92250.47;;;5.05;100.00
64602;BME280;51013;42.630;23.192;2023-03-04T01:39:55;92252.31;;;5.22;100.00
64602;BME280;51013;42.630;23.192;2023-03-04T01:42:24;92256.59;;;5.18;99.86
64602;BME280;51013;42.630;23.192;2023-03-04T01:44:51;92251.56;;;5.21;99.59
64602;BME280;51013;42.630;23.192;2023-03-04T01:47:28;92252.44;;;5.17;99.29
64602;BME280;51013;42.630;23.192;2023-03-04T01:49:56;92224.56;;;5.00;99.44
64602;BME280;51013;42.630;23.192;2023-03-04T01:52:28;92222.88;;;5.04;98.72
64602;BME280;51013;42.630;23.192;2023-03-04T01:54:56;92250.78;;;5.21;98.37
64602;BME280;51013;42.630;23.192;2023-03-04T01:57:26;92233.31;;;5.13;98.30
64602;BME280;51013;42.630;23.192;2023-03-04T02:00:19;92229.81;;;5.17;98.06
64602;BME280;51013;42.630;23.192;2023-03-04T02:02:47;92224.72;;;5.12;98.33
64602;BME280;51013;42.630;23.192;2023-03-04T02:05:15;92246.19;;;5.18;98.34
64602;BME280;51013;42.630;23.192;2023-03-04T02:07:42;92248.63;;;5.23;97.95
64602;BME280;51013;42.630;23.192;2023-03-04T02:10:11;92242.53;;;5.28;97.97
64602;BME280;51013;42.630;23.192;2023-03-04T02:12:38;92251.56;;;5.21;98.25
64602;BME280;51013;42.630;23.192;2023-03-04T02:15:07;92247.13;;;5.22;98.34
64602;BME280;51013;42.630;23.192;2023-03-04T02:17:34;92242.81;;;5.17;98.38
64602;BME280;51013;42.630;23.192;2023-03-04T02:20:06;92223.81;;;5.08;98.19
64602;BME280;51013;42.630;23.192;2023-03-04T02:22:41;92237.75;;;5.21;98.33
64602;BME280;51013;42.630;23.192;2023-03-04T02:25:17;92239.47;;;5.26;97.77
64602;BME280;51013;42.630;23.192;2023-03-04T02:27:48;92242.22;;;5.29;96.98
64602;BME280;51013;42.630;23.192;2023-03-04T02:30:16;92236.06;;;5.16;97.01
64602;BME280;51013;42.630;23.192;2023-03-04T02:32:43;92243.59;;;5.09;97.57
64602;BME280;51013;42.630;23.192;2023-03-04T02:35:15;92235.31;;;5.07;97.78
64602;BME280;51013;42.630;23.192;2023-03-04T02:37:42;92234.97;;;5.09;97.87
64602;BME280;51013;42.630;23.192;2023-03-04T02:40:13;92228.25;;;4.99;98.42
64602;BME280;51013;42.630;23.192;2023-03-04T02:42:41;92230.84;;;5.08;98.01
64602;BME280;51013;42.630;23.192;2023-03-04T02:45:31;92234.22;;;4.99;98.33
64602;BME280;51013;42.630;23.192;2023-03-04T02:47:59;92231.63;;;4.99;97.43
64602;BME280;51013;42.630;23.192;2023-03-04T02:50:32;92229.59;;;4.96;96.92
64602;BME280;51013;42.630;23.192;2023-03-04T02:52:59;92221.94;;;4.91;96.65
64602;BME280;51013;42.630;23.192;2023-03-04T02:55:27;92228.53;;;4.89;96.77
64602;BME280;51013;42.630;23.192;2023-03-04T02:57:54;92232.97;;;4.88;97.19
64602;BME280;51013;42.630;23.192;2023-03-04T03:00:23;92227.00;;;4.88;97.02
64602;BME280;51013;42.630;23.192;2023-03-04T03:02:51;92225.59;;;4.90;96.48
64602;BME280;51013;42.630;23.192;2023-03-04T03:05:18;92225.47;;;4.95;95.95
64602;BME280;51013;42.630;23.192;2023-03-04T03:07:44;92229.44;;;4.84;96.63
64602;BME280;51013;42.630;23.192;2023-03-04T03:10:11;92233.13;;;4.83;96.25
64602;BME280;51013;42.630;23.192;2023-03-04T03:12:38;92230.50;;;4.83;96.45
64602;BME280;51013;42.630;23.192;2023-03-04T03:15:06;92226.97;;;4.79;96.11
64602;BME280;51013;42.630;23.192;2023-03-04T03:17:32;92213.47;;;4.68;96.31
64602;BME280;51013;42.630;23.192;2023-03-04T03:20:01;92225.13;;;4.71;96.51
64602;BME280;51013;42.630;23.192;2023-03-04T03:22:29;92216.09;;;4.77;96.04
64602;BME280;51013;42.630;23.192;2023-03-04T03:24:56;92216.22;;;4.72;96.16
64602;BME280;51013;42.630;23.192;2023-03-04T03:27:24;92214.72;;;4.71;95.96
64602;BME280;51013;42.630;23.192;2023-03-04T03:29:51;92205.06;;;4.63;95.65
64602;BME280;51013;42.630;23.192;2023-03-04T03:32:17;92216.41;;;4.75;95.35
64602;BME280;51013;42.630;23.192;2023-03-04T03:34:44;92210.53;;;4.61;95.15
64602;BME280;51013;42.630;23.192;2023-03-04T03:37:13;92210.72;;;4.65;95.04
64602;BME280;51013;42.630;23.192;2023-03-04T03:39:40;92210.84;;;4.59;94.90
64602;BME280;51013;42.630;23.192;2023-03-04T03:42:06;92212.06;;;4.62;94.80
64602;BME280;51013;42.630;23.192;2023-03-04T03:44:33;92205.78;;;4.54;94.48
64602;BME280;51013;42.630;23.192;2023-03-04T03:47:00;92191.97;;;4.36;94.26
64602;BME280;51013;42.630;23.192;2023-03-04T03:49:27;92203.59;;;4.39;94.14
64602;BME280;51013;42.630;23.192;2023-03-04T03:51:56;92201.56;;;4.36;93.91
64602;BME280;51013;42.630;23.192;2023-03-04T03:54:24;92202.94;;;4.25;94.53
64602;BME280;51013;42.630;23.192;2023-03-04T03:56:51;92207.31;;;4.15;94.87
64602;BME280;51013;42.630;23.192;2023-03-04T03:59:18;92206.97;;;4.08;95.12
64602;BME280;51013;42.630;23.192;2023-03-04T04:01:45;92200.72;;;4.09;94.74
64602;BME280;51013;42.630;23.192;2023-03-04T04:04:12;92201.03;;;4.08;94.08
64602;BME280;51013;42.630;23.192;2023-03-04T04:06:38;92200.84;;;4.04;93.83
64602;BME280;51013;42.630;23.192;2023-03-04T04:09:05;92187.22;;;3.98;93.42
64602;BME280;51013;42.630;23.192;2023-03-04T04:11:33;92185.84;;;4.01;93.33
64602;BME280;51013;42.630;23.192;2023-03-04T04:14:02;92195.44;;;3.92;93.63
64602;BME280;51013;42.630;23.192;2023-03-04T04:16:28;92198.44;;;3.85;93.40
64602;BME280;51013;42.630;23.192;2023-03-04T04:18:58;92203.97;;;3.84;93.12
64602;BME280;51013;42.630;23.192;2023-03-04T04:21:25;92205.16;;;3.77;93.31
64602;BME280;51013;42.630;23.192;2023-03-04T04:23:51;92195.16;;;3.71;93.31
64602;BME280;51013;42.630;23.192;2023-03-04T04:26:18;92204.78;;;3.70;92.05
64602;BME280;51013;42.630;23.192;2023-03-04T04:28:47;92193.13;;;3.59;92.49
64602;BME280;51013;42.630;23.192;2023-03-04T04:31:14;92204.28;;;3.59;92.87
64602;BME280;51013;42.630;23.192;2023-03-04T04:33:40;92196.09;;;3.52;92.72
64602;BME280;51013;42.630;23.192;2023-03-04T04:36:08;92197.00;;;3.48;92.74
64602;BME280;51013;42.630;23.192;2023-03-04T04:38:38;92194.47;;;3.34;92.81
64602;BME280;51013;42.630;23.192;2023-03-04T04:41:05;92198.47;;;3.40;92.73
64602;BME280;51013;42.630;23.192;2023-03-04T04:43:34;92201.97;;;3.35;92.60
64602;BME280;51013;42.630;23.192;2023-03-04T04:46:03;92194.47;;;3.34;91.75
64602;BME280;51013;42.630;23.192;2023-03-04T04:48:30;92198.41;;;3.31;91.73
64602;BME280;51013;42.630;23.192;2023-03-04T04:50:59;92202.94;;;3.26;91.60
64602;BME280;51013;42.630;23.192;2023-03-04T04:53:26;92202.75;;;3.22;91.81
64602;BME280;51013;42.630;23.192;2023-03-04T04:55:53;92201.81;;;3.18;91.32
64602;BME280;51013;42.630;23.192;2023-03-04T04:58:19;92200.72;;;3.10;91.54
64602;BME280;51013;42.630;23.192;2023-03-04T05:00:46;92204.81;;;3.11;91.90
64602;BME280;51013;42.630;23.192;2023-03-04T05:03:15;92208.59;;;3.05;91.80
64602;BME280;51013;42.630;23.192;2023-03-04T05:05:41;92205.94;;;2.96;92.18
64602;BME280;51013;42.630;23.192;2023-03-04T05:08:08;92215.94;;;2.89;92.32
64602;BME280;51013;42.630;23.192;2023-03-04T05:10:35;92218.91;;;2.96;91.74
64602;BME280;51013;42.630;23.192;2023-03-04T05:13:01;92219.94;;;2.95;92.26
64602;BME280;51013;42.630;23.192;2023-03-04T05:15:29;92221.78;;;2.95;92.35
64602;BME280;51013;42.630;23.192;2023-03-04T05:17:56;92217.34;;;2.95;92.69
64602;BME280;51013;42.630;23.192;2023-03-04T05:20:24;92219.75;;;2.92;93.01
64602;BME280;51013;42.630;23.192;2023-03-04T05:22:51;92234.69;;;2.86;93.56
64602;BME280;51013;42.630;23.192;2023-03-04T05:25:18;92225.44;;;2.94;93.10
64602;BME280;51013;42.630;23.192;2023-03-04T05:27:44;92225.13;;;2.95;93.40
64602;BME280;51013;42.630;23.192;2023-03-04T05:30:12;92236.94;;;3.01;93.48
64602;BME280;51013;42.630;23.192;2023-03-04T05:32:38;92236.13;;;2.92;93.57
64602;BME280;51013;42.630;23.192;2023-03-04T05:35:06;92210.69;;;2.67;93.65
64602;BME280;51013;42.630;23.192;2023-03-04T05:37:36;92236.31;;;2.82;94.17
64602;BME280;51013;42.630;23.192;2023-03-04T05:40:05;92242.47;;;2.86;94.72
64602;BME280;51013;42.630;23.192;2023-03-04T05:42:36;92241.59;;;2.91;94.74
64602;BME280;51013;42.630;23.192;2023-03-04T05:45:06;92205.88;;;2.74;95.79
64602;BME280;51013;42.630;23.192;2023-03-04T05:47:35;92234.34;;;3.01;95.69
64602;BME280;51013;42.630;23.192;2023-03-04T05:50:02;92242.03;;;3.07;95.10
64602;BME280;51013;42.630;23.192;2023-03-04T05:52:30;92237.44;;;3.04;94.89
64602;BME280;51013;42.630;23.192;2023-03-04T05:54:58;92238.66;;;3.06;95.02
64602;BME280;51013;42.630;23.192;2023-03-04T05:57:25;92243.84;;;3.06;95.62
64602;BME280;51013;42.630;23.192;2023-03-04T05:59:52;92240.88;;;3.13;95.16
64602;BME280;51013;42.630;23.192;2023-03-04T06:02:18;92236.81;;;3.20;94.64
64602;BME280;51013;42.630;23.192;2023-03-04T06:04:45;92234.09;;;3.26;94.92
64602;BME280;51013;42.630;23.192;2023-03-04T06:07:12;92236.66;;;3.39;94.90
64602;BME280;51013;42.630;23.192;2023-03-04T06:09:38;92248.28;;;3.42;95.26
64602;BME280;51013;42.630;23.192;2023-03-04T06:12:08;92239.31;;;3.48;95.87
64602;BME280;51013;42.630;23.192;2023-03-04T06:14:37;92244.59;;;3.57;95.70
64602;BME280;51013;42.630;23.192;2023-03-04T06:17:03;92244.94;;;3.64;94.88
64602;BME280;51013;42.630;23.192;2023-03-04T06:19:31;92252.38;;;3.57;95.80
64602;BME280;51013;42.630;23.192;2023-03-04T06:21:58;92250.56;;;3.57;96.69
64602;BME280;51013;42.630;23.192;2023-03-04T06:24:25;92254.38;;;3.60;96.46
64602;BME280;51013;42.630;23.192;2023-03-04T06:26:52;92250.13;;;3.64;96.67
64602;BME280;51013;42.630;23.192;2023-03-04T06:29:21;92251.13;;;3.77;96.56
64602;BME280;51013;42.630;23.192;2023-03-04T06:31:48;92257.97;;;3.73;96.34
64602;BME280;51013;42.630;23.192;2023-03-04T06:34:15;92261.19;;;3.70;96.41
64602;BME280;51013;42.630;23.192;2023-03-04T06:36:42;92245.06;;;3.59;97.83
64602;BME280;51013;42.630;23.192;2023-03-04T06:39:09;92261.22;;;3.78;98.07
64602;BME280;51013;42.630;23.192;2023-03-04T06:41:38;92256.09;;;3.87;98.37
64602;BME280;51013;42.630;23.192;2023-03-04T06:44:05;92251.97;;;3.86;98.47
64602;BME280;51013;42.630;23.192;2023-03-04T06:46:35;92264.47;;;4.07;98.42
64602;BME280;51013;42.630;23.192;2023-03-04T06:49:05;92250.81;;;4.01;97.95
64602;BME280;51013;42.630;23.192;2023-03-04T06:51:34;92263.09;;;4.09;96.58
64602;BME280;51013;42.630;23.192;2023-03-04T06:54:01;92273.69;;;4.13;96.92
64602;BME280;51013;42.630;23.192;2023-03-04T06:56:27;92250.09;;;4.09;98.17
64602;BME280;51013;42.630;23.192;2023-03-04T06:58:54;92251.66;;;4.10;98.64
64602;BME280;51013;42.630;23.192;2023-03-04T07:01:22;92268.66;;;4.16;99.25
64602;BME280;51013;42.630;23.192;2023-03-04T07:03:52;92268.03;;;4.19;99.66
64602;BME280;51013;42.630;23.192;2023-03-04T07:06:21;92260.00;;;4.30;99.41
64602;BME280;51013;42.630;23.192;2023-03-04T07:08:48;92262.03;;;4.41;99.46
64602;BME280;51013;42.630;23.192;2023-03-04T07:11:16;92261.41;;;4.36;97.96
64602;BME280;51013;42.630;23.192;2023-03-04T07:13:43;92266.38;;;4.46;98.16
64602;BME280;51013;42.630;23.192;2023-03-04T07:16:11;92267.75;;;4.52;99.58
64602;BME280;51013;42.630;23.192;2023-03-04T07:18:39;92265.47;;;4.59;98.44
64602;BME280;51013;42.630;23.192;2023-03-04T07:21:08;92267.97;;;4.73;97.02
64602;BME280;51013;42.630;23.192;2023-03-04T07:23:36;92268.19;;;4.86;96.07
64602;BME280;51013;42.630;23.192;2023-03-04T07:26:06;92273.56;;;4.98;95.61
64602;BME280;51013;42.630;23.192;2023-03-04T07:28:35;92268.66;;;4.96;93.99
64602;BME280;51013;42.630;23.192;2023-03-04T07:31:12;92273.25;;;4.99;94.94
64602;BME280;51013;42.630;23.192;2023-03-04T07:33:40;92273.72;;;5.01;94.49
64602;BME280;51013;42.630;23.192;2023-03-04T07:36:11;92274.50;;;5.11;94.47
64602;BME280;51013;42.630;23.192;2023-03-04T07:38:42;92270.38;;;5.01;94.09
64602;BME280;51013;42.630;23.192;2023-03-04T07:41:08;92269.94;;;5.16;95.04
64602;BME280;51013;42.630;23.192;2023-03-04T07:43:36;92268.41;;;5.15;95.67
64602;BME280;51013;42.630;23.192;2023-03-04T07:46:04;92265.34;;;5.13;93.72
64602;BME280;51013;42.630;23.192;2023-03-04T07:48:31;92264.59;;;5.21;93.71
64602;BME280;51013;42.630;23.192;2023-03-04T07:51:02;92260.44;;;5.12;95.38
64602;BME280;51013;42.630;23.192;2023-03-04T07:53:31;92273.75;;;5.19;94.49
64602;BME280;51013;42.630;23.192;2023-03-04T07:55:58;92263.50;;;5.14;94.43
64602;BME280;51013;42.630;23.192;2023-03-04T07:58:26;92271.59;;;5.21;93.01
64602;BME280;51013;42.630;23.192;2023-03-04T08:00:53;92267.34;;;5.25;93.49
64602;BME280;51013;42.630;23.192;2023-03-04T08:03:20;92262.56;;;5.18;93.92
64602;BME280;51013;42.630;23.192;2023-03-04T08:05:47;92263.78;;;5.21;93.14
64602;BME280;51013;42.630;23.192;2023-03-04T08:08:14;92263.06;;;5.29;91.61
64602;BME280;51013;42.630;23.192;2023-03-04T08:10:43;92266.13;;;5.31;91.93
64602;BME280;51013;42.630;23.192;2023-03-04T08:13:10;92261.66;;;5.23;91.60
64602;BME280;51013;42.630;23.192;2023-03-04T08:15:41;92261.19;;;5.21;92.22
64602;BME280;51013;42.630;23.192;2023-03-04T08:18:08;92262.91;;;5.34;91.85
64602;BME280;51013;42.630;23.192;2023-03-04T08:20:36;92267.81;;;5.36;91.54
64602;BME280;51013;42.630;23.192;2023-03-04T08:23:08;92271.19;;;5.45;92.88
64602;BME280;51013;42.630;23.192;2023-03-04T08:25:38;92264.91;;;5.46;91.85
64602;BME280;51013;42.630;23.192;2023-03-04T08:28:10;92263.84;;;5.56;91.55
64602;BME280;51013;42.630;23.192;2023-03-04T08:30:39;92259.69;;;5.46;90.83
64602;BME280;51013;42.630;23.192;2023-03-04T08:33:06;92256.03;;;5.56;92.99
64602;BME280;51013;42.630;23.192;2023-03-04T08:35:36;92254.50;;;5.72;91.22
64602;BME280;51013;42.630;23.192;2023-03-04T08:38:04;92249.44;;;5.76;91.64
64602;BME280;51013;42.630;23.192;2023-03-04T08:40:31;92246.03;;;5.75;89.83
64602;BME280;51013;42.630;23.192;2023-03-04T08:42:59;92255.09;;;5.87;90.32
64602;BME280;51013;42.630;23.192;2023-03-04T08:45:27;92254.78;;;5.97;90.95
64602;BME280;51013;42.630;23.192;2023-03-04T08:47:54;92253.72;;;6.07;89.00
64602;BME280;51013;42.630;23.192;2023-03-04T08:50:21;92228.25;;;6.04;89.06
64602;BME280;51013;42.630;23.192;2023-03-04T08:52:48;92249.06;;;6.21;89.61
64602;BME280;51013;42.630;23.192;2023-03-04T08:55:15;92247.88;;;6.18;89.24
64602;BME280;51013;42.630;23.192;2023-03-04T08:57:41;92246.41;;;6.38;89.12
64602;BME280;51013;42.630;23.192;2023-03-04T09:00:10;92249.00;;;6.38;87.27
64602;BME280;51013;42.630;23.192;2023-03-04T09:02:40;92245.78;;;6.41;86.78
64602;BME280;51013;42.630;23.192;2023-03-04T09:05:09;92243.69;;;6.35;86.46
64602;BME280;51013;42.630;23.192;2023-03-04T09:07:36;92254.72;;;6.32;87.76
64602;BME280;51013;42.630;23.192;2023-03-04T09:10:05;92243.75;;;6.56;86.76
64602;BME280;51013;42.630;23.192;2023-03-04T09:12:31;92246.03;;;6.57;85.21
64602;BME280;51013;42.630;23.192;2023-03-04T09:14:58;92236.22;;;6.54;86.73
64602;BME280;51013;42.630;23.192;2023-03-04T09:17:25;92231.75;;;6.64;85.02
64602;BME280;51013;42.630;23.192;2023-03-04T09:19:54;92240.16;;;6.69;86.10
64602;BME280;51013;42.630;23.192;2023-03-04T09:22:20;92236.06;;;6.59;85.08
64602;BME280;51013;42.630;23.192;2023-03-04T09:24:47;92229.69;;;6.78;87.17
64602;BME280;51013;42.630;23.192;2023-03-04T09:27:14;92229.69;;;6.78;85.43
64602;BME280;51013;42.630;23.192;2023-03-04T09:29:40;92236.97;;;6.64;85.61
64602;BME280;51013;42.630;23.192;2023-03-04T09:32:09;92231.69;;;6.72;86.12
64602;BME280;51013;42.630;23.192;2023-03-04T09:34:35;92237.31;;;6.83;86.13
64602;BME280;51013;42.630;23.192;2023-03-04T09:37:03;92222.28;;;6.80;85.00
64602;BME280;51013;42.630;23.192;2023-03-04T09:39:31;92230.66;;;6.94;85.74
64602;BME280;51013;42.630;23.192;2023-03-04T09:41:58;92230.53;;;6.91;83.86
64602;BME280;51013;42.630;23.192;2023-03-04T09:44:28;92220.63;;;7.05;83.96
64602;BME280;51013;42.630;23.192;2023-03-04T09:46:58;92223.41;;;7.00;83.22
64602;BME280;51013;42.630;23.192;2023-03-04T09:49:26;92228.97;;;7.19;83.73
64602;BME280;51013;42.630;23.192;2023-03-04T09:52:02;92224.53;;;7.41;82.49
64602;BME280;51013;42.630;23.192;2023-03-04T09:54:54;92219.69;;;7.10;81.97
64602;BME280;51013;42.630;23.192;2023-03-04T09:57:29;92225.50;;;7.36;81.16
64602;BME280;51013;42.630;23.192;2023-03-04T10:00:11;92211.78;;;7.39;81.71
64602;BME280;51013;42.630;23.192;2023-03-04T10:02:44;92211.97;;;7.55;81.25
64602;BME280;51013;42.630;23.192;2023-03-04T10:05:16;92209.78;;;7.57;79.91
64602;BME280;51013;42.630;23.192;2023-03-04T10:07:47;92204.56;;;7.57;78.77
64602;BME280;51013;42.630;23.192;2023-03-04T10:10:23;92208.66;;;7.67;78.98
64602;BME280;51013;42.630;23.192;2023-03-04T10:12:52;92211.66;;;7.90;80.07
64602;BME280;51013;42.630;23.192;2023-03-04T10:15:23;92202.22;;;8.10;78.93
64602;BME280;51013;42.630;23.192;2023-03-04T10:17:57;92204.97;;;8.14;76.52
64602;BME280;51013;42.630;23.192;2023-03-04T10:20:31;92200.06;;;8.12;77.86
64602;BME280;51013;42.630;23.192;2023-03-04T10:23:09;92185.34;;;8.08;78.01
64602;BME280;51013;42.630;23.192;2023-03-04T10:25:42;92196.69;;;8.12;76.51
64602;BME280;51013;42.630;23.192;2023-03-04T10:28:13;92182.72;;;8.08;78.07
64602;BME280;51013;42.630;23.192;2023-03-04T10:30:47;92177.28;;;8.25;78.75
64602;BME280;51013;42.630;23.192;2023-03-04T10:33:18;92163.25;;;8.30;77.67
64602;BME280;51013;42.630;23.192;2023-03-04T10:35:48;92182.16;;;8.48;78.64
64602;BME280;51013;42.630;23.192;2023-03-04T10:38:18;92171.03;;;8.51;78.22
64602;BME280;51013;42.630;23.192;2023-03-04T10:40:47;92177.88;;;8.68;74.53
64602;BME280;51013;42.630;23.192;2023-03-04T10:43:16;92160.88;;;8.86;76.64
64602;BME280;51013;42.630;23.192;2023-03-04T10:45:43;92162.28;;;8.83;75.87
64602;BME280;51013;42.630;23.192;2023-03-04T10:48:21;92161.28;;;9.00;75.40
64602;BME280;51013;42.630;23.192;2023-03-04T10:50:48;92148.59;;;9.15;76.35
64602;BME280;51013;42.630;23.192;2023-03-04T10:53:32;92153.38;;;9.25;77.87
64602;BME280;51013;42.630;23.192;2023-03-04T10:56:30;92146.38;;;9.29;75.01
64602;BME280;51013;42.630;23.192;2023-03-04T10:59:23;92146.41;;;9.17;75.36
64602;BME280;51013;42.630;23.192;2023-03-04T11:01:55;92135.88;;;9.29;76.80
64602;BME280;51013;42.630;23.192;2023-03-04T11:04:23;92137.72;;;9.41;76.40
64602;BME280;51013;42.630;23.192;2023-03-04T11:06:51;92134.03;;;9.58;74.68
64602;BME280;51013;42.630;23.192;2023-03-04T11:09:21;92098.81;;;9.43;74.19
64602;BME280;51013;42.630;23.192;2023-03-04T11:11:51;92110.47;;;9.46;75.70
64602;BME280;51013;42.630;23.192;2023-03-04T11:14:21;92125.34;;;9.41;75.65
64602;BME280;51013;42.630;23.192;2023-03-04T11:16:54;92117.28;;;9.34;76.01
64602;BME280;51013;42.630;23.192;2023-03-04T11:19:23;92111.88;;;9.27;76.56
64602;BME280;51013;42.630;23.192;2023-03-04T11:21:54;92121.28;;;9.16;76.39
64602;BME280;51013;42.630;23.192;2023-03-04T11:24:24;92109.50;;;9.10;77.30
64602;BME280;51013;42.630;23.192;2023-03-04T11:26:57;92109.78;;;8.92;77.46
64602;BME280;51013;42.630;23.192;2023-03-04T11:29:30;92106.50;;;8.83;78.70
64602;BME280;51013;42.630;23.192;2023-03-04T11:32:04;92103.03;;;8.79;80.11
64602;BME280;51013;42.630;23.192;2023-03-04T11:34:41;92031.16;;;8.27;78.97
64602;BME280;51013;42.630;23.192;2023-03-04T11:37:14;92097.06;;;8.66;79.19
64602;BME280;51013;42.630;23.192;2023-03-04T11:39:47;92090.94;;;8.62;80.23
64602;BME280;51013;42.630;23.192;2023-03-04T11:42:22;91992.19;;;7.85;81.55
64602;BME280;51013;42.630;23.192;2023-03-04T11:44:52;92086.38;;;8.59;82.26
64602;BME280;51013;42.630;23.192;2023-03-04T11:47:28;92082.97;;;8.71;81.59
64602;BME280;51013;42.630;23.192;2023-03-04T11:50:18;92079.66;;;8.86;81.25
64602;BME280;51013;42.630;23.192;2023-03-04T11:54:16;92079.66;;;8.86;77.40
64602;BME280;51013;42.630;23.192;2023-03-04T11:56:49;92070.84;;;8.78;78.57
64602;BME280;51013;42.630;23.192;2023-03-04T11:59:45;92066.31;;;8.51;81.26
64602;BME280;51013;42.630;23.192;2023-03-04T12:02:17;92062.72;;;8.43;81.07
64602;BME280;51013;42.630;23.192;2023-03-04T12:05:00;92074.56;;;8.65;80.86
64602;BME280;51013;42.630;23.192;2023-03-04T12:07:44;92068.13;;;8.75;79.27
64602;BME280;51013;42.630;23.192;2023-03-04T12:10:20;92060.25;;;8.75;78.36
64602;BME280;51013;42.630;23.192;2023-03-04T12:13:11;92068.34;;;8.82;79.33
64602;BME280;68371;42.630;23.192;2023-03-04T12:15:45;92055.22;;;8.82;78.87
64602;BME280;68371;42.630;23.192;2023-03-04T12:18:27;92057.94;;;8.86;78.94
64602;BME280;68371;42.630;23.192;2023-03-04T12:21:10;92054.56;;;8.85;78.28
64602;BME280;68371;42.630;23.192;2023-03-04T12:26:35;92056.59;;;8.92;77.98
64602;BME280;68371;42.630;23.192;2023-03-04T12:31:32;92049.06;;;8.62;78.67
64602;BME280;68371;42.630;23.192;2023-03-04T12:35:35;92045.94;;;8.85;79.41
64602;BME280;68371;42.630;23.192;2023-03-04T12:38:26;92047.56;;;8.89;78.40
64602;BME280;68371;42.630;23.192;2023-03-04T12:40:57;91989.53;;;8.47;77.03
64602;BME280;68371;42.630;23.192;2023-03-04T12:43:48;92052.00;;;8.60;78.11
64602;BME280;68371;42.630;23.192;2023-03-04T12:48:26;92024.44;;;8.26;79.78
64602;BME280;68371;42.630;23.192;2023-03-04T12:51:06;92013.09;;;8.22;80.53
64602;BME280;68371;42.630;23.192;2023-03-04T12:53:42;92001.53;;;8.35;79.41
64602;BME280;68371;42.630;23.192;2023-03-04T12:56:21;92033.25;;;8.46;80.09
64602;BME280;68371;42.630;23.192;2023-03-04T12:58:49;92030.41;;;8.39;78.79
64602;BME280;68371;42.630;23.192;2023-03-04T13:01:22;92022.78;;;8.46;79.37
64602;BME280;68371;42.630;23.192;2023-03-04T13:03:57;92030.94;;;8.57;78.97
64602;BME280;68371;42.630;23.192;2023-03-04T13:06:34;92019.72;;;8.56;78.28
64602;BME280;68371;42.630;23.192;2023-03-04T13:09:15;92000.25;;;8.41;78.43
64602;BME280;68371;42.630;23.192;2023-03-04T13:11:51;91994.66;;;8.43;78.53
64602;BME280;68371;42.630;23.192;2023-03-04T13:14:32;92009.44;;;8.63;78.56
64602;BME280;68371;42.630;23.192;2023-03-04T13:17:01;92012.19;;;8.55;79.84
64602;BME280;68371;42.630;23.192;2023-03-04T13:20:43;92002.81;;;8.54;79.26
64602;BME280;68371;42.630;23.192;2023-03-04T13:21:47;91979.81;;;8.35;77.84
64602;BME280;68371;42.630;23.192;2023-03-04T13:22:54;92009.91;;;8.53;77.23